sensor_id;sensor_type;location;lat;lon;timestamp;P1;durP1;ratioP1;P2;durP2;ratioP2
20497;SDS011;10407;53.238;10.448;2022-10-22T00:00:22;23.50;;;14.23;;
20497;SDS011;10407;53.238;10.448;2022-10-22T00:02:50;17.27;;;11.70;;
20497;SDS011;10407;53.238;10.448;2022-10-22T00:05:17;17.77;;;11.83;;
20497;SDS011;10407;53.238;10.448;2022-10-22T00:07:45;18.30;;;11.83;;
20497;SDS011;10407;53.238;10.448;2022-10-22T00:10:12;22.47;;;13.70;;
20497;SDS011;10407;53.238;10.448;2022-10-22T00:12:42;22.90;;;12.10;;
20497;SDS011;10407;53.238;10.448;2022-10-22T00:15:09;17.50;;;12.00;;
20497;SDS011;10407;53.238;10.448;2022-10-22T00:17:37;19.93;;;11.10;;
20497;SDS011;10407;53.238;10.448;2022-10-22T00:20:05;23.33;;;12.10;;
20497;SDS011;10407;53.238;10.448;2022-10-22T00:22:33;20.77;;;13.17;;
20497;SDS011;10407;53.238;10.448;2022-10-22T00:25:01;27.60;;;13.43;;
20497;SDS011;10407;53.238;10.448;2022-10-22T00:27:28;17.90;;;11.87;;
20497;SDS011;10407;53.238;10.448;2022-10-22T00:29:56;19.97;;;12.03;;
20497;SDS011;10407;53.238;10.448;2022-10-22T00:32:23;18.60;;;11.67;;
20497;SDS011;10407;53.238;10.448;2022-10-22T00:34:51;19.80;;;11.87;;
20497;SDS011;10407;53.238;10.448;2022-10-22T00:37:18;17.07;;;12.30;;
20497;SDS011;10407;53.238;10.448;2022-10-22T00:39:46;18.40;;;11.97;;
20497;SDS011;10407;53.238;10.448;2022-10-22T00:42:15;20.37;;;12.20;;
20497;SDS011;10407;53.238;10.448;2022-10-22T00:45:00;19.80;;;11.27;;
20497;SDS011;10407;53.238;10.448;2022-10-22T00:47:43;19.30;;;10.30;;
20497;SDS011;10407;53.238;10.448;2022-10-22T00:50:24;16.53;;;11.13;;
20497;SDS011;10407;53.238;10.448;2022-10-22T00:52:55;16.33;;;10.97;;
20497;SDS011;10407;53.238;10.448;2022-10-22T00:55:25;16.73;;;11.03;;
20497;SDS011;10407;53.238;10.448;2022-10-22T00:57:53;15.23;;;10.23;;
20497;SDS011;10407;53.238;10.448;2022-10-22T01:00:22;15.17;;;10.77;;
20497;SDS011;10407;53.238;10.448;2022-10-22T01:02:51;16.53;;;10.97;;
20497;SDS011;10407;53.238;10.448;2022-10-22T01:05:20;15.07;;;10.10;;
20497;SDS011;10407;53.238;10.448;2022-10-22T01:07:49;18.20;;;11.40;;
20497;SDS011;10407;53.238;10.448;2022-10-22T01:10:34;19.70;;;10.90;;
20497;SDS011;10407;53.238;10.448;2022-10-22T01:13:32;15.03;;;9.60;;
20497;SDS011;10407;53.238;10.448;2022-10-22T01:21:52;15.13;;;10.73;;
20497;SDS011;10407;53.238;10.448;2022-10-22T01:29:36;15.57;;;10.73;;
20497;SDS011;10407;53.238;10.448;2022-10-22T01:32:09;16.23;;;10.00;;
20497;SDS011;10407;53.238;10.448;2022-10-22T01:34:41;18.07;;;9.53;;
20497;SDS011;10407;53.238;10.448;2022-10-22T01:37:11;16.83;;;11.00;;
20497;SDS011;10407;53.238;10.448;2022-10-22T01:39:41;13.73;;;10.03;;
20497;SDS011;10407;53.238;10.448;2022-10-22T01:42:12;15.37;;;9.93;;
20497;SDS011;10407;53.238;10.448;2022-10-22T01:44:40;19.60;;;9.50;;
20497;SDS011;10407;53.238;10.448;2022-10-22T02:03:45;21.37;;;12.80;;
20497;SDS011;10407;53.238;10.448;2022-10-22T02:06:18;19.53;;;12.10;;
20497;SDS011;10407;53.238;10.448;2022-10-22T02:08:47;18.40;;;9.90;;
20497;SDS011;10407;53.238;10.448;2022-10-22T02:11:16;14.60;;;10.33;;
20497;SDS011;10407;53.238;10.448;2022-10-22T02:13:51;11.13;;;8.23;;
20497;SDS011;10407;53.238;10.448;2022-10-22T02:16:26;17.70;;;10.70;;
20497;SDS011;10407;53.238;10.448;2022-10-22T02:18:53;15.83;;;10.50;;
20497;SDS011;10407;53.238;10.448;2022-10-22T02:21:22;17.47;;;10.00;;
20497;SDS011;10407;53.238;10.448;2022-10-22T02:23:49;14.60;;;10.07;;
20497;SDS011;10407;53.238;10.448;2022-10-22T02:26:22;19.70;;;12.40;;
20497;SDS011;10407;53.238;10.448;2022-10-22T02:31:47;18.33;;;10.20;;
20497;SDS011;10407;53.238;10.448;2022-10-22T02:34:18;65.53;;;12.27;;
20497;SDS011;10407;53.238;10.448;2022-10-22T02:36:47;18.13;;;9.20;;
20497;SDS011;10407;53.238;10.448;2022-10-22T02:39:17;26.20;;;11.83;;
20497;SDS011;10407;53.238;10.448;2022-10-22T02:41:46;11.63;;;8.33;;
20497;SDS011;10407;53.238;10.448;2022-10-22T02:44:14;40.27;;;8.67;;
20497;SDS011;10407;53.238;10.448;2022-10-22T02:46:43;16.60;;;8.17;;
20497;SDS011;10407;53.238;10.448;2022-10-22T02:49:10;17.33;;;7.87;;
20497;SDS011;10407;53.238;10.448;2022-10-22T02:51:38;10.00;;;7.53;;
20497;SDS011;10407;53.238;10.448;2022-10-22T02:54:05;13.87;;;8.47;;
20497;SDS011;10407;53.238;10.448;2022-10-22T02:56:33;12.53;;;7.73;;
20497;SDS011;10407;53.238;10.448;2022-10-22T02:59:00;15.97;;;8.60;;
20497;SDS011;10407;53.238;10.448;2022-10-22T03:01:28;15.53;;;8.47;;
20497;SDS011;10407;53.238;10.448;2022-10-22T03:03:56;18.77;;;8.37;;
20497;SDS011;10407;53.238;10.448;2022-10-22T03:06:23;11.73;;;7.93;;
20497;SDS011;10407;53.238;10.448;2022-10-22T03:08:51;12.10;;;8.10;;
20497;SDS011;10407;53.238;10.448;2022-10-22T03:11:18;15.10;;;9.20;;
20497;SDS011;10407;53.238;10.448;2022-10-22T03:13:46;12.50;;;8.43;;
20497;SDS011;10407;53.238;10.448;2022-10-22T03:16:13;9.23;;;7.10;;
20497;SDS011;10407;53.238;10.448;2022-10-22T03:18:41;10.50;;;7.07;;
20497;SDS011;10407;53.238;10.448;2022-10-22T03:21:10;12.80;;;8.50;;
20497;SDS011;10407;53.238;10.448;2022-10-22T03:23:48;10.90;;;8.00;;
20497;SDS011;10407;53.238;10.448;2022-10-22T03:26:15;9.30;;;7.17;;
20497;SDS011;10407;53.238;10.448;2022-10-22T03:28:43;9.60;;;6.63;;
20497;SDS011;10407;53.238;10.448;2022-10-22T03:31:13;7.27;;;6.00;;
20497;SDS011;10407;53.238;10.448;2022-10-22T03:33:40;10.77;;;6.43;;
20497;SDS011;10407;53.238;10.448;2022-10-22T03:36:08;12.73;;;7.53;;
20497;SDS011;10407;53.238;10.448;2022-10-22T03:38:36;14.87;;;7.90;;
20497;SDS011;10407;53.238;10.448;2022-10-22T03:41:06;8.50;;;6.17;;
20497;SDS011;10407;53.238;10.448;2022-10-22T03:43:34;9.70;;;5.80;;
20497;SDS011;10407;53.238;10.448;2022-10-22T03:46:03;10.27;;;7.80;;
20497;SDS011;10407;53.238;10.448;2022-10-22T03:48:30;17.97;;;8.00;;
20497;SDS011;10407;53.238;10.448;2022-10-22T03:50:58;13.10;;;7.83;;
20497;SDS011;10407;53.238;10.448;2022-10-22T03:53:26;20.60;;;7.00;;
20497;SDS011;10407;53.238;10.448;2022-10-22T03:55:53;19.10;;;7.80;;
20497;SDS011;10407;53.238;10.448;2022-10-22T03:58:21;87.97;;;10.37;;
20497;SDS011;10407;53.238;10.448;2022-10-22T04:00:48;29.53;;;13.23;;
20497;SDS011;10407;53.238;10.448;2022-10-22T04:03:16;20.87;;;11.90;;
20497;SDS011;10407;53.238;10.448;2022-10-22T04:05:43;25.90;;;10.30;;
20497;SDS011;10407;53.238;10.448;2022-10-22T04:08:11;32.43;;;8.63;;
20497;SDS011;10407;53.238;10.448;2022-10-22T04:10:38;14.70;;;8.30;;
20497;SDS011;10407;53.238;10.448;2022-10-22T04:13:06;12.77;;;8.33;;
20497;SDS011;10407;53.238;10.448;2022-10-22T04:15:33;36.80;;;9.50;;
20497;SDS011;10407;53.238;10.448;2022-10-22T04:18:01;16.80;;;8.50;;
20497;SDS011;10407;53.238;10.448;2022-10-22T04:20:28;12.40;;;7.70;;
20497;SDS011;10407;53.238;10.448;2022-10-22T04:22:56;29.30;;;9.70;;
20497;SDS011;10407;53.238;10.448;2022-10-22T04:25:23;16.50;;;8.37;;
20497;SDS011;10407;53.238;10.448;2022-10-22T04:27:51;58.17;;;14.80;;
20497;SDS011;10407;53.238;10.448;2022-10-22T04:30:18;28.23;;;13.10;;
20497;SDS011;10407;53.238;10.448;2022-10-22T04:32:46;18.27;;;10.13;;
20497;SDS011;10407;53.238;10.448;2022-10-22T04:35:13;24.77;;;8.80;;
20497;SDS011;10407;53.238;10.448;2022-10-22T04:37:41;25.37;;;8.00;;
20497;SDS011;10407;53.238;10.448;2022-10-22T04:40:09;14.87;;;8.17;;
20497;SDS011;10407;53.238;10.448;2022-10-22T04:42:37;40.77;;;10.27;;
20497;SDS011;10407;53.238;10.448;2022-10-22T04:45:04;14.80;;;9.17;;
20497;SDS011;10407;53.238;10.448;2022-10-22T04:47:32;13.60;;;8.50;;
20497;SDS011;10407;53.238;10.448;2022-10-22T04:50:00;15.10;;;9.63;;
20497;SDS011;10407;53.238;10.448;2022-10-22T04:52:27;12.93;;;9.43;;
20497;SDS011;10407;53.238;10.448;2022-10-22T04:54:56;15.43;;;10.73;;
20497;SDS011;10407;53.238;10.448;2022-10-22T04:57:23;83.97;;;13.20;;
20497;SDS011;10407;53.238;10.448;2022-10-22T04:59:54;19.47;;;10.97;;
20497;SDS011;10407;53.238;10.448;2022-10-22T05:02:21;23.43;;;10.53;;
20497;SDS011;10407;53.238;10.448;2022-10-22T05:04:49;14.40;;;9.03;;
20497;SDS011;10407;53.238;10.448;2022-10-22T05:07:16;17.47;;;9.90;;
20497;SDS011;10407;53.238;10.448;2022-10-22T05:09:44;13.30;;;8.57;;
20497;SDS011;10407;53.238;10.448;2022-10-22T05:12:12;18.57;;;9.40;;
20497;SDS011;10407;53.238;10.448;2022-10-22T05:14:39;12.97;;;9.20;;
20497;SDS011;10407;53.238;10.448;2022-10-22T05:17:07;12.17;;;8.57;;
20497;SDS011;10407;53.238;10.448;2022-10-22T05:19:34;13.10;;;9.50;;
20497;SDS011;10407;53.238;10.448;2022-10-22T05:22:03;11.73;;;8.53;;
20497;SDS011;10407;53.238;10.448;2022-10-22T05:24:31;11.07;;;7.90;;
20497;SDS011;10407;53.238;10.448;2022-10-22T05:27:01;18.03;;;8.17;;
20497;SDS011;10407;53.238;10.448;2022-10-22T05:29:29;10.47;;;6.90;;
20497;SDS011;10407;53.238;10.448;2022-10-22T05:31:57;12.37;;;8.53;;
20497;SDS011;10407;53.238;10.448;2022-10-22T05:34:24;21.00;;;8.07;;
20497;SDS011;10407;53.238;10.448;2022-10-22T05:36:52;9.27;;;7.00;;
20497;SDS011;10407;53.238;10.448;2022-10-22T05:39:19;14.63;;;7.77;;
20497;SDS011;10407;53.238;10.448;2022-10-22T05:41:47;14.03;;;7.50;;
20497;SDS011;10407;53.238;10.448;2022-10-22T05:44:14;22.40;;;8.57;;
20497;SDS011;10407;53.238;10.448;2022-10-22T05:46:42;12.90;;;7.37;;
20497;SDS011;10407;53.238;10.448;2022-10-22T05:49:11;16.63;;;8.17;;
20497;SDS011;10407;53.238;10.448;2022-10-22T05:51:40;13.57;;;8.30;;
20497;SDS011;10407;53.238;10.448;2022-10-22T05:54:07;11.53;;;8.20;;
20497;SDS011;10407;53.238;10.448;2022-10-22T05:56:38;14.97;;;9.50;;
20497;SDS011;10407;53.238;10.448;2022-10-22T05:59:05;14.77;;;9.40;;
20497;SDS011;10407;53.238;10.448;2022-10-22T06:01:33;11.27;;;7.70;;
20497;SDS011;10407;53.238;10.448;2022-10-22T06:04:10;11.60;;;8.00;;
20497;SDS011;10407;53.238;10.448;2022-10-22T06:06:39;11.93;;;6.80;;
20497;SDS011;10407;53.238;10.448;2022-10-22T06:09:13;11.10;;;7.97;;
20497;SDS011;10407;53.238;10.448;2022-10-22T06:11:44;8.73;;;6.80;;
20497;SDS011;10407;53.238;10.448;2022-10-22T06:14:12;10.23;;;8.17;;
20497;SDS011;10407;53.238;10.448;2022-10-22T06:16:40;12.30;;;8.03;;
20497;SDS011;10407;53.238;10.448;2022-10-22T06:19:11;12.20;;;8.47;;
20497;SDS011;10407;53.238;10.448;2022-10-22T06:21:41;15.33;;;9.80;;
20497;SDS011;10407;53.238;10.448;2022-10-22T06:24:09;11.13;;;8.13;;
20497;SDS011;10407;53.238;10.448;2022-10-22T06:26:37;10.67;;;7.40;;
20497;SDS011;10407;53.238;10.448;2022-10-22T06:29:06;9.83;;;6.70;;
20497;SDS011;10407;53.238;10.448;2022-10-22T06:31:33;23.20;;;7.63;;
20497;SDS011;10407;53.238;10.448;2022-10-22T06:34:13;10.07;;;6.83;;
20497;SDS011;10407;53.238;10.448;2022-10-22T06:36:38;14.43;;;8.63;;
20497;SDS011;10407;53.238;10.448;2022-10-22T06:39:14;11.23;;;7.80;;
20497;SDS011;10407;53.238;10.448;2022-10-22T06:41:38;16.07;;;9.40;;
20497;SDS011;10407;53.238;10.448;2022-10-22T06:44:06;15.93;;;9.67;;
20497;SDS011;10407;53.238;10.448;2022-10-22T06:46:35;11.67;;;7.70;;
20497;SDS011;10407;53.238;10.448;2022-10-22T06:49:03;9.27;;;7.23;;
20497;SDS011;10407;53.238;10.448;2022-10-22T06:51:30;11.97;;;8.60;;
20497;SDS011;10407;53.238;10.448;2022-10-22T06:53:58;9.03;;;7.33;;
20497;SDS011;10407;53.238;10.448;2022-10-22T06:56:26;12.30;;;8.00;;
20497;SDS011;10407;53.238;10.448;2022-10-22T06:58:55;12.33;;;9.10;;
20497;SDS011;10407;53.238;10.448;2022-10-22T07:01:24;14.30;;;9.43;;
20497;SDS011;10407;53.238;10.448;2022-10-22T07:03:54;13.70;;;8.80;;
20497;SDS011;10407;53.238;10.448;2022-10-22T07:06:22;31.03;;;17.57;;
20497;SDS011;10407;53.238;10.448;2022-10-22T07:08:52;19.93;;;13.20;;
20497;SDS011;10407;53.238;10.448;2022-10-22T07:11:22;19.47;;;10.60;;
20497;SDS011;10407;53.238;10.448;2022-10-22T07:13:52;16.13;;;11.30;;
20497;SDS011;10407;53.238;10.448;2022-10-22T07:16:21;16.93;;;10.20;;
20497;SDS011;10407;53.238;10.448;2022-10-22T07:18:49;17.00;;;10.10;;
20497;SDS011;10407;53.238;10.448;2022-10-22T07:21:17;17.10;;;11.47;;
20497;SDS011;10407;53.238;10.448;2022-10-22T07:23:46;18.33;;;9.90;;
20497;SDS011;10407;53.238;10.448;2022-10-22T07:26:15;20.73;;;10.40;;
20497;SDS011;10407;53.238;10.448;2022-10-22T07:28:45;15.50;;;10.13;;
20497;SDS011;10407;53.238;10.448;2022-10-22T07:31:13;19.03;;;11.80;;
20497;SDS011;10407;53.238;10.448;2022-10-22T07:33:42;20.80;;;12.60;;
20497;SDS011;10407;53.238;10.448;2022-10-22T07:36:11;20.27;;;11.23;;
20497;SDS011;10407;53.238;10.448;2022-10-22T07:38:45;22.87;;;12.67;;
20497;SDS011;10407;53.238;10.448;2022-10-22T07:41:15;19.17;;;12.07;;
20497;SDS011;10407;53.238;10.448;2022-10-22T07:43:43;23.17;;;12.30;;
20497;SDS011;10407;53.238;10.448;2022-10-22T07:46:10;18.40;;;11.27;;
20497;SDS011;10407;53.238;10.448;2022-10-22T07:48:38;16.40;;;11.20;;
20497;SDS011;10407;53.238;10.448;2022-10-22T07:51:06;16.80;;;10.73;;
20497;SDS011;10407;53.238;10.448;2022-10-22T07:53:33;16.03;;;10.20;;
20497;SDS011;10407;53.238;10.448;2022-10-22T07:56:02;13.33;;;9.20;;
20497;SDS011;10407;53.238;10.448;2022-10-22T07:58:29;11.40;;;8.40;;
20497;SDS011;10407;53.238;10.448;2022-10-22T08:00:58;15.43;;;9.80;;
20497;SDS011;10407;53.238;10.448;2022-10-22T08:03:27;13.30;;;9.13;;
20497;SDS011;10407;53.238;10.448;2022-10-22T08:05:55;16.90;;;7.83;;
20497;SDS011;10407;53.238;10.448;2022-10-22T08:08:22;18.13;;;9.37;;
20497;SDS011;10407;53.238;10.448;2022-10-22T08:10:51;13.40;;;8.37;;
20497;SDS011;10407;53.238;10.448;2022-10-22T08:13:19;12.07;;;8.53;;
20497;SDS011;10407;53.238;10.448;2022-10-22T08:15:47;12.97;;;7.70;;
20497;SDS011;10407;53.238;10.448;2022-10-22T08:18:14;13.33;;;9.03;;
20497;SDS011;10407;53.238;10.448;2022-10-22T08:20:42;11.73;;;8.47;;
20497;SDS011;10407;53.238;10.448;2022-10-22T08:23:10;16.40;;;8.97;;
20497;SDS011;10407;53.238;10.448;2022-10-22T08:25:37;11.17;;;8.23;;
20497;SDS011;10407;53.238;10.448;2022-10-22T08:28:04;10.27;;;7.53;;
20497;SDS011;10407;53.238;10.448;2022-10-22T08:30:32;13.67;;;6.67;;
20497;SDS011;10407;53.238;10.448;2022-10-22T08:33:01;10.20;;;7.50;;
20497;SDS011;10407;53.238;10.448;2022-10-22T08:35:29;9.33;;;6.93;;
20497;SDS011;10407;53.238;10.448;2022-10-22T08:37:57;10.60;;;7.40;;
20497;SDS011;10407;53.238;10.448;2022-10-22T08:40:28;13.80;;;6.93;;
20497;SDS011;10407;53.238;10.448;2022-10-22T08:46:06;9.73;;;6.70;;
20497;SDS011;10407;53.238;10.448;2022-10-22T08:48:49;10.53;;;7.43;;
20497;SDS011;10407;53.238;10.448;2022-10-22T08:51:23;12.90;;;7.03;;
20497;SDS011;10407;53.238;10.448;2022-10-22T08:56:36;10.80;;;7.07;;
20497;SDS011;10407;53.238;10.448;2022-10-22T08:59:13;11.80;;;6.97;;
20497;SDS011;10407;53.238;10.448;2022-10-22T09:01:44;10.70;;;6.93;;
20497;SDS011;10407;53.238;10.448;2022-10-22T09:06:51;9.60;;;6.50;;
20497;SDS011;10407;53.238;10.448;2022-10-22T09:09:21;10.93;;;5.90;;
20497;SDS011;10407;53.238;10.448;2022-10-22T09:11:52;10.13;;;7.00;;
20497;SDS011;10407;53.238;10.448;2022-10-22T09:14:22;7.90;;;6.10;;
20497;SDS011;10407;53.238;10.448;2022-10-22T09:17:10;10.67;;;6.70;;
20497;SDS011;10407;53.238;10.448;2022-10-22T09:22:27;18.90;;;6.67;;
20497;SDS011;10407;53.238;10.448;2022-10-22T09:25:22;11.47;;;5.73;;
20497;SDS011;10407;53.238;10.448;2022-10-22T09:27:51;8.17;;;5.87;;
20497;SDS011;10407;53.238;10.448;2022-10-22T09:30:22;13.53;;;5.93;;
20497;SDS011;10407;53.238;10.448;2022-10-22T09:32:58;11.23;;;5.50;;
20497;SDS011;10407;53.238;10.448;2022-10-22T09:35:27;8.80;;;4.87;;
20497;SDS011;10407;53.238;10.448;2022-10-22T09:37:56;9.10;;;4.83;;
20497;SDS011;10407;53.238;10.448;2022-10-22T09:40:25;8.93;;;5.03;;
20497;SDS011;10407;53.238;10.448;2022-10-22T09:42:53;11.83;;;5.33;;
20497;SDS011;10407;53.238;10.448;2022-10-22T09:45:22;11.30;;;4.37;;
20497;SDS011;10407;53.238;10.448;2022-10-22T09:48:06;11.47;;;4.00;;
20497;SDS011;10407;53.238;10.448;2022-10-22T09:50:40;14.57;;;4.70;;
20497;SDS011;10407;53.238;10.448;2022-10-22T09:53:13;11.60;;;5.20;;
20497;SDS011;10407;53.238;10.448;2022-10-22T09:55:50;10.53;;;3.97;;
20497;SDS011;10407;53.238;10.448;2022-10-22T09:58:19;12.77;;;4.20;;
20497;SDS011;10407;53.238;10.448;2022-10-22T10:00:50;7.00;;;3.73;;
20497;SDS011;10407;53.238;10.448;2022-10-22T10:03:18;9.10;;;4.70;;
20497;SDS011;10407;53.238;10.448;2022-10-22T10:05:49;11.33;;;3.60;;
20497;SDS011;10407;53.238;10.448;2022-10-22T10:08:18;9.50;;;3.10;;
20497;SDS011;10407;53.238;10.448;2022-10-22T10:16:01;6.30;;;3.00;;
20497;SDS011;10407;53.238;10.448;2022-10-22T10:18:46;8.33;;;3.67;;
20497;SDS011;10407;53.238;10.448;2022-10-22T10:21:29;6.30;;;3.37;;
20497;SDS011;10407;53.238;10.448;2022-10-22T10:24:08;8.47;;;2.83;;
20497;SDS011;10407;53.238;10.448;2022-10-22T10:31:51;5.37;;;2.97;;
20497;SDS011;10407;53.238;10.448;2022-10-22T10:34:47;10.90;;;3.43;;
20497;SDS011;10407;53.238;10.448;2022-10-22T10:40:10;6.40;;;2.53;;
20497;SDS011;10407;53.238;10.448;2022-10-22T10:42:52;8.30;;;3.30;;
20497;SDS011;10407;53.238;10.448;2022-10-22T10:45:27;5.73;;;2.93;;
20497;SDS011;10407;53.238;10.448;2022-10-22T10:51:24;8.67;;;3.10;;
20497;SDS011;10407;53.238;10.448;2022-10-22T10:56:54;8.53;;;3.10;;
20497;SDS011;10407;53.238;10.448;2022-10-22T11:07:40;6.20;;;2.73;;
20497;SDS011;10407;53.238;10.448;2022-10-22T11:10:18;4.03;;;2.33;;
20497;SDS011;10407;53.238;10.448;2022-10-22T11:12:46;10.87;;;2.57;;
20497;SDS011;10407;53.238;10.448;2022-10-22T11:17:50;4.57;;;2.60;;
20497;SDS011;10407;53.238;10.448;2022-10-22T11:23:09;5.33;;;2.40;;
20497;SDS011;10407;53.238;10.448;2022-10-22T11:25:44;5.93;;;2.60;;
20497;SDS011;10407;53.238;10.448;2022-10-22T11:30:47;5.80;;;2.20;;
20497;SDS011;10407;53.238;10.448;2022-10-22T11:33:17;8.00;;;2.60;;
20497;SDS011;10407;53.238;10.448;2022-10-22T11:35:46;13.57;;;2.80;;
20497;SDS011;10407;53.238;10.448;2022-10-22T11:38:17;11.13;;;3.40;;
20497;SDS011;10407;53.238;10.448;2022-10-22T11:40:47;7.50;;;2.83;;
20497;SDS011;10407;53.238;10.448;2022-10-22T11:43:30;8.70;;;2.20;;
20497;SDS011;10407;53.238;10.448;2022-10-22T11:46:23;5.97;;;2.40;;
20497;SDS011;10407;53.238;10.448;2022-10-22T11:48:59;9.90;;;2.50;;
20497;SDS011;10407;53.238;10.448;2022-10-22T11:51:35;10.10;;;3.00;;
20497;SDS011;10407;53.238;10.448;2022-10-22T11:54:25;13.30;;;2.70;;
20497;SDS011;10407;53.238;10.448;2022-10-22T11:59:49;8.03;;;2.70;;
20497;SDS011;10407;53.238;10.448;2022-10-22T12:05:17;7.47;;;2.60;;
20497;SDS011;10407;53.238;10.448;2022-10-22T12:07:54;5.07;;;2.73;;
20497;SDS011;10407;53.238;10.448;2022-10-22T12:13:27;11.60;;;3.00;;
20497;SDS011;10407;53.238;10.448;2022-10-22T12:15:58;4.93;;;2.20;;
20497;SDS011;10407;53.238;10.448;2022-10-22T12:18:32;10.67;;;2.60;;
20497;SDS011;10407;53.238;10.448;2022-10-22T12:20:58;5.87;;;2.77;;
20497;SDS011;10407;53.238;10.448;2022-10-22T12:23:30;10.13;;;2.80;;
20497;SDS011;10407;53.238;10.448;2022-10-22T12:25:56;5.10;;;2.53;;
20497;SDS011;10407;53.238;10.448;2022-10-22T12:28:24;7.87;;;2.20;;
20497;SDS011;10407;53.238;10.448;2022-10-22T12:30:51;8.70;;;2.60;;
20497;SDS011;10407;53.238;10.448;2022-10-22T12:33:20;4.47;;;2.50;;
20497;SDS011;10407;53.238;10.448;2022-10-22T12:35:53;6.00;;;3.23;;
20497;SDS011;10407;53.238;10.448;2022-10-22T12:38:22;4.63;;;2.60;;
20497;SDS011;10407;53.238;10.448;2022-10-22T12:40:50;10.97;;;3.43;;
20497;SDS011;10407;53.238;10.448;2022-10-22T12:43:27;8.97;;;2.80;;
20497;SDS011;10407;53.238;10.448;2022-10-22T12:45:57;8.23;;;2.77;;
20497;SDS011;10407;53.238;10.448;2022-10-22T12:48:29;6.77;;;2.53;;
20497;SDS011;10407;53.238;10.448;2022-10-22T12:51:02;3.83;;;2.43;;
20497;SDS011;10407;53.238;10.448;2022-10-22T12:53:33;7.17;;;2.80;;
20497;SDS011;10407;53.238;10.448;2022-10-22T12:56:04;8.73;;;3.57;;
20497;SDS011;10407;53.238;10.448;2022-10-22T12:58:38;3.20;;;2.33;;
20497;SDS011;10407;53.238;10.448;2022-10-22T13:01:09;4.93;;;2.53;;
20497;SDS011;10407;53.238;10.448;2022-10-22T13:03:45;7.60;;;2.90;;
20497;SDS011;10407;53.238;10.448;2022-10-22T13:09:02;5.43;;;3.30;;
20497;SDS011;10407;53.238;10.448;2022-10-22T13:11:32;7.03;;;3.30;;
20497;SDS011;10407;53.238;10.448;2022-10-22T13:17:02;12.20;;;3.30;;
20497;SDS011;10407;53.238;10.448;2022-10-22T13:19:45;8.13;;;3.00;;
20497;SDS011;10407;53.238;10.448;2022-10-22T13:22:36;7.80;;;3.30;;
20497;SDS011;10407;53.238;10.448;2022-10-22T13:27:44;6.67;;;3.17;;
20497;SDS011;10407;53.238;10.448;2022-10-22T13:30:20;3.63;;;2.57;;
20497;SDS011;10407;53.238;10.448;2022-10-22T13:32:59;12.53;;;3.70;;
20497;SDS011;10407;53.238;10.448;2022-10-22T13:35:36;8.30;;;3.13;;
20497;SDS011;10407;53.238;10.448;2022-10-22T13:38:14;6.73;;;2.60;;
20497;SDS011;10407;53.238;10.448;2022-10-22T13:40:44;7.43;;;3.40;;
20497;SDS011;10407;53.238;10.448;2022-10-22T13:43:15;6.53;;;3.20;;
20497;SDS011;10407;53.238;10.448;2022-10-22T13:45:44;6.37;;;3.10;;
20497;SDS011;10407;53.238;10.448;2022-10-22T13:48:16;7.33;;;2.80;;
20497;SDS011;10407;53.238;10.448;2022-10-22T13:50:47;7.30;;;2.77;;
20497;SDS011;10407;53.238;10.448;2022-10-22T13:53:25;13.53;;;2.80;;
20497;SDS011;10407;53.238;10.448;2022-10-22T13:55:49;7.43;;;2.63;;
20497;SDS011;10407;53.238;10.448;2022-10-22T13:58:18;7.67;;;2.87;;
20497;SDS011;10407;53.238;10.448;2022-10-22T14:00:50;5.67;;;2.97;;
20497;SDS011;10407;53.238;10.448;2022-10-22T14:03:21;6.27;;;2.80;;
20497;SDS011;10407;53.238;10.448;2022-10-22T14:05:54;8.67;;;3.07;;
20497;SDS011;10407;53.238;10.448;2022-10-22T14:08:22;8.40;;;2.67;;
20497;SDS011;10407;53.238;10.448;2022-10-22T14:10:51;5.70;;;2.90;;
20497;SDS011;10407;53.238;10.448;2022-10-22T14:13:19;9.70;;;3.27;;
20497;SDS011;10407;53.238;10.448;2022-10-22T14:15:48;4.60;;;2.60;;
20497;SDS011;10407;53.238;10.448;2022-10-22T14:18:19;10.00;;;3.90;;
20497;SDS011;10407;53.238;10.448;2022-10-22T14:20:50;5.40;;;3.00;;
20497;SDS011;10407;53.238;10.448;2022-10-22T14:23:21;11.77;;;3.17;;
20497;SDS011;10407;53.238;10.448;2022-10-22T14:25:51;11.20;;;2.80;;
20497;SDS011;10407;53.238;10.448;2022-10-22T14:28:18;9.90;;;4.03;;
20497;SDS011;10407;53.238;10.448;2022-10-22T14:30:46;5.27;;;3.30;;
20497;SDS011;10407;53.238;10.448;2022-10-22T14:35:50;14.17;;;3.93;;
20497;SDS011;10407;53.238;10.448;2022-10-22T14:38:18;6.73;;;3.07;;
20497;SDS011;10407;53.238;10.448;2022-10-22T14:40:45;5.50;;;2.80;;
20497;SDS011;10407;53.238;10.448;2022-10-22T14:43:21;8.13;;;2.90;;
20497;SDS011;10407;53.238;10.448;2022-10-22T14:45:53;9.03;;;3.40;;
20497;SDS011;10407;53.238;10.448;2022-10-22T14:48:21;20.00;;;9.60;;
20497;SDS011;10407;53.238;10.448;2022-10-22T14:50:49;25.70;;;14.53;;
20497;SDS011;10407;53.238;10.448;2022-10-22T14:53:16;14.93;;;6.37;;
20497;SDS011;10407;53.238;10.448;2022-10-22T14:55:44;6.17;;;3.13;;
20497;SDS011;10407;53.238;10.448;2022-10-22T14:58:13;6.93;;;3.10;;
20497;SDS011;10407;53.238;10.448;2022-10-22T15:00:41;10.17;;;2.53;;
20497;SDS011;10407;53.238;10.448;2022-10-22T15:03:09;6.07;;;2.93;;
20497;SDS011;10407;53.238;10.448;2022-10-22T15:05:40;8.53;;;2.93;;
20497;SDS011;10407;53.238;10.448;2022-10-22T15:08:09;11.53;;;3.50;;
20497;SDS011;10407;53.238;10.448;2022-10-22T15:10:38;7.63;;;2.90;;
20497;SDS011;10407;53.238;10.448;2022-10-22T15:13:06;10.37;;;2.63;;
20497;SDS011;10407;53.238;10.448;2022-10-22T15:15:33;5.90;;;2.70;;
20497;SDS011;10407;53.238;10.448;2022-10-22T15:18:01;5.57;;;2.10;;
20497;SDS011;10407;53.238;10.448;2022-10-22T15:20:28;7.23;;;3.43;;
20497;SDS011;10407;53.238;10.448;2022-10-22T15:22:56;13.37;;;3.17;;
20497;SDS011;10407;53.238;10.448;2022-10-22T15:25:24;7.43;;;3.10;;
20497;SDS011;10407;53.238;10.448;2022-10-22T15:27:51;10.80;;;6.20;;
20497;SDS011;10407;53.238;10.448;2022-10-22T15:30:19;9.43;;;3.30;;
20497;SDS011;10407;53.238;10.448;2022-10-22T15:32:46;10.30;;;3.97;;
20497;SDS011;10407;53.238;10.448;2022-10-22T15:35:14;10.20;;;2.70;;
20497;SDS011;10407;53.238;10.448;2022-10-22T15:37:41;7.73;;;2.87;;
20497;SDS011;10407;53.238;10.448;2022-10-22T15:40:09;9.03;;;2.63;;
20497;SDS011;10407;53.238;10.448;2022-10-22T15:42:37;8.57;;;3.60;;
20497;SDS011;10407;53.238;10.448;2022-10-22T15:45:04;6.40;;;2.70;;
20497;SDS011;10407;53.238;10.448;2022-10-22T15:47:33;4.73;;;2.30;;
20497;SDS011;10407;53.238;10.448;2022-10-22T15:50:01;11.87;;;2.83;;
20497;SDS011;10407;53.238;10.448;2022-10-22T15:52:30;8.27;;;2.90;;
20497;SDS011;10407;53.238;10.448;2022-10-22T15:54:57;9.07;;;3.13;;
20497;SDS011;10407;53.238;10.448;2022-10-22T15:57:26;9.70;;;3.10;;
20497;SDS011;10407;53.238;10.448;2022-10-22T15:59:54;6.03;;;3.30;;
20497;SDS011;10407;53.238;10.448;2022-10-22T16:02:21;7.03;;;3.00;;
20497;SDS011;10407;53.238;10.448;2022-10-22T16:04:49;11.37;;;2.97;;
20497;SDS011;10407;53.238;10.448;2022-10-22T16:07:16;7.87;;;3.93;;
20497;SDS011;10407;53.238;10.448;2022-10-22T16:09:44;11.40;;;2.80;;
20497;SDS011;10407;53.238;10.448;2022-10-22T16:12:11;5.00;;;2.53;;
20497;SDS011;10407;53.238;10.448;2022-10-22T16:14:39;6.87;;;2.63;;
20497;SDS011;10407;53.238;10.448;2022-10-22T16:17:07;9.43;;;3.13;;